sensor_id;sensor_type;location;lat;lon;timestamp;P1;durP1;ratioP1;P2;durP2;ratioP2
40254;SDS011;25973;52.368;4.940;2022-08-19T00:01:20;10.52;;;3.90;;
40254;SDS011;25973;52.368;4.940;2022-08-19T00:03:46;10.38;;;4.30;;
40254;SDS011;25973;52.368;4.940;2022-08-19T00:06:12;7.85;;;3.60;;
40254;SDS011;25973;52.368;4.940;2022-08-19T00:08:38;7.22;;;4.20;;
40254;SDS011;25973;52.368;4.940;2022-08-19T00:11:04;12.48;;;4.85;;
40254;SDS011;25973;52.368;4.940;2022-08-19T00:13:30;9.13;;;4.18;;
40254;SDS011;25973;52.368;4.940;2022-08-19T00:15:55;6.82;;;4.45;;
40254;SDS011;25973;52.368;4.940;2022-08-19T00:18:21;9.43;;;5.03;;
40254;SDS011;25973;52.368;4.940;2022-08-19T00:20:47;10.40;;;4.55;;
40254;SDS011;25973;52.368;4.940;2022-08-19T00:23:13;8.30;;;4.93;;
40254;SDS011;25973;52.368;4.940;2022-08-19T00:25:39;9.63;;;4.80;;
40254;SDS011;25973;52.368;4.940;2022-08-19T00:28:05;11.70;;;4.30;;
40254;SDS011;25973;52.368;4.940;2022-08-19T00:30:31;6.25;;;4.38;;
40254;SDS011;25973;52.368;4.940;2022-08-19T00:32:57;8.35;;;4.55;;
40254;SDS011;25973;52.368;4.940;2022-08-19T00:35:22;10.63;;;4.43;;
40254;SDS011;25973;52.368;4.940;2022-08-19T00:37:49;7.10;;;4.25;;
40254;SDS011;25973;52.368;4.940;2022-08-19T00:40:15;6.10;;;4.38;;
40254;SDS011;25973;52.368;4.940;2022-08-19T00:42:41;9.27;;;4.28;;
40254;SDS011;25973;52.368;4.940;2022-08-19T00:45:11;8.65;;;4.47;;
40254;SDS011;25973;52.368;4.940;2022-08-19T00:47:39;8.27;;;4.18;;
40254;SDS011;25973;52.368;4.940;2022-08-19T00:50:06;7.53;;;4.50;;
40254;SDS011;25973;52.368;4.940;2022-08-19T00:52:36;7.70;;;4.40;;
40254;SDS011;25973;52.368;4.940;2022-08-19T00:55:06;6.07;;;3.90;;
40254;SDS011;25973;52.368;4.940;2022-08-19T00:57:36;10.63;;;4.57;;
40254;SDS011;25973;52.368;4.940;2022-08-19T01:00:06;6.07;;;4.45;;
40254;SDS011;25973;52.368;4.940;2022-08-19T01:02:36;8.00;;;4.30;;
40254;SDS011;25973;52.368;4.940;2022-08-19T01:05:03;13.77;;;4.97;;
40254;SDS011;25973;52.368;4.940;2022-08-19T01:07:31;9.10;;;4.57;;
40254;SDS011;25973;52.368;4.940;2022-08-19T01:09:59;7.40;;;4.45;;
40254;SDS011;25973;52.368;4.940;2022-08-19T01:12:24;8.35;;;5.25;;
40254;SDS011;25973;52.368;4.940;2022-08-19T01:14:50;11.57;;;5.60;;
40254;SDS011;25973;52.368;4.940;2022-08-19T01:17:17;12.93;;;6.00;;
40254;SDS011;25973;52.368;4.940;2022-08-19T01:19:43;10.27;;;6.35;;
40254;SDS011;25973;52.368;4.940;2022-08-19T01:22:16;9.95;;;6.38;;
40254;SDS011;25973;52.368;4.940;2022-08-19T01:24:47;10.63;;;7.22;;
40254;SDS011;25973;52.368;4.940;2022-08-19T01:27:13;12.63;;;7.18;;
40254;SDS011;25973;52.368;4.940;2022-08-19T01:29:41;11.90;;;7.40;;
40254;SDS011;25973;52.368;4.940;2022-08-19T01:32:08;19.52;;;7.38;;
40254;SDS011;25973;52.368;4.940;2022-08-19T01:34:37;14.85;;;7.63;;
40254;SDS011;25973;52.368;4.940;2022-08-19T01:37:10;11.07;;;7.80;;
40254;SDS011;25973;52.368;4.940;2022-08-19T01:39:36;13.55;;;7.55;;
40254;SDS011;25973;52.368;4.940;2022-08-19T01:42:03;14.02;;;7.90;;
40254;SDS011;25973;52.368;4.940;2022-08-19T01:44:31;18.17;;;8.32;;
40254;SDS011;25973;52.368;4.940;2022-08-19T01:46:56;14.43;;;8.25;;
40254;SDS011;25973;52.368;4.940;2022-08-19T01:49:23;11.82;;;7.25;;
40254;SDS011;25973;52.368;4.940;2022-08-19T01:51:51;17.95;;;8.63;;
40254;SDS011;25973;52.368;4.940;2022-08-19T01:54:19;13.93;;;7.00;;
40254;SDS011;25973;52.368;4.940;2022-08-19T01:56:46;14.30;;;8.50;;
40254;SDS011;25973;52.368;4.940;2022-08-19T01:59:12;12.18;;;7.40;;
40254;SDS011;25973;52.368;4.940;2022-08-19T02:01:41;12.30;;;7.82;;
40254;SDS011;25973;52.368;4.940;2022-08-19T02:04:07;17.58;;;8.02;;
40254;SDS011;25973;52.368;4.940;2022-08-19T02:06:33;13.82;;;7.82;;
40254;SDS011;25973;52.368;4.940;2022-08-19T02:09:03;15.32;;;8.43;;
40254;SDS011;25973;52.368;4.940;2022-08-19T02:11:31;12.85;;;7.80;;
40254;SDS011;25973;52.368;4.940;2022-08-19T02:14:04;14.38;;;7.50;;
40254;SDS011;25973;52.368;4.940;2022-08-19T02:16:32;14.85;;;7.95;;
40254;SDS011;25973;52.368;4.940;2022-08-19T02:18:58;14.23;;;8.40;;
40254;SDS011;25973;52.368;4.940;2022-08-19T02:21:27;17.58;;;8.18;;
40254;SDS011;25973;52.368;4.940;2022-08-19T02:23:54;13.30;;;7.93;;
40254;SDS011;25973;52.368;4.940;2022-08-19T02:26:20;16.38;;;7.55;;
40254;SDS011;25973;52.368;4.940;2022-08-19T02:28:46;11.90;;;7.68;;
40254;SDS011;25973;52.368;4.940;2022-08-19T02:31:14;14.13;;;7.13;;
40254;SDS011;25973;52.368;4.940;2022-08-19T02:33:45;13.68;;;7.57;;
40254;SDS011;25973;52.368;4.940;2022-08-19T02:36:12;16.08;;;7.18;;
40254;SDS011;25973;52.368;4.940;2022-08-19T02:38:38;13.75;;;7.95;;
40254;SDS011;25973;52.368;4.940;2022-08-19T02:41:11;16.23;;;8.10;;
40254;SDS011;25973;52.368;4.940;2022-08-19T02:43:41;13.52;;;8.07;;
40254;SDS011;25973;52.368;4.940;2022-08-19T02:46:23;15.45;;;8.20;;
40254;SDS011;25973;52.368;4.940;2022-08-19T02:48:52;14.20;;;7.90;;
40254;SDS011;25973;52.368;4.940;2022-08-19T02:51:21;16.95;;;9.73;;
40254;SDS011;25973;52.368;4.940;2022-08-19T02:53:48;16.23;;;8.90;;
40254;SDS011;25973;52.368;4.940;2022-08-19T02:56:14;17.77;;;8.38;;
40254;SDS011;25973;52.368;4.940;2022-08-19T02:58:40;15.85;;;9.27;;
40254;SDS011;25973;52.368;4.940;2022-08-19T03:01:06;16.25;;;9.07;;
40254;SDS011;25973;52.368;4.940;2022-08-19T03:03:32;13.95;;;7.68;;
40254;SDS011;25973;52.368;4.940;2022-08-19T03:06:11;13.90;;;8.63;;
40254;SDS011;25973;52.368;4.940;2022-08-19T03:08:42;22.10;;;8.13;;
40254;SDS011;25973;52.368;4.940;2022-08-19T03:11:17;15.73;;;9.00;;
40254;SDS011;25973;52.368;4.940;2022-08-19T03:13:57;15.23;;;9.32;;
40254;SDS011;25973;52.368;4.940;2022-08-19T03:16:24;14.10;;;8.10;;
40254;SDS011;25973;52.368;4.940;2022-08-19T03:18:52;16.05;;;8.23;;
40254;SDS011;25973;52.368;4.940;2022-08-19T03:21:19;17.27;;;8.70;;
40254;SDS011;25973;52.368;4.940;2022-08-19T03:23:48;14.17;;;9.33;;
40254;SDS011;25973;52.368;4.940;2022-08-19T03:26:14;17.20;;;9.25;;
40254;SDS011;25973;52.368;4.940;2022-08-19T03:28:41;15.63;;;9.18;;
40254;SDS011;25973;52.368;4.940;2022-08-19T03:31:09;14.77;;;8.70;;
40254;SDS011;25973;52.368;4.940;2022-08-19T03:33:36;20.85;;;8.75;;
40254;SDS011;25973;52.368;4.940;2022-08-19T03:38:37;14.10;;;8.77;;
40254;SDS011;25973;52.368;4.940;2022-08-19T03:41:06;17.08;;;9.80;;
40254;SDS011;25973;52.368;4.940;2022-08-19T03:43:35;15.52;;;9.02;;
40254;SDS011;25973;52.368;4.940;2022-08-19T03:46:09;13.77;;;8.50;;
40254;SDS011;25973;52.368;4.940;2022-08-19T03:48:38;21.48;;;9.00;;
40254;SDS011;25973;52.368;4.940;2022-08-19T03:51:05;16.10;;;9.32;;
40254;SDS011;25973;52.368;4.940;2022-08-19T03:53:33;16.50;;;9.13;;
40254;SDS011;25973;52.368;4.940;2022-08-19T03:55:59;17.63;;;9.02;;
40254;SDS011;25973;52.368;4.940;2022-08-19T03:58:26;18.10;;;9.57;;
40254;SDS011;25973;52.368;4.940;2022-08-19T04:00:57;14.52;;;8.65;;
40254;SDS011;25973;52.368;4.940;2022-08-19T04:03:23;16.33;;;9.95;;
40254;SDS011;25973;52.368;4.940;2022-08-19T04:05:49;16.25;;;9.93;;
40254;SDS011;25973;52.368;4.940;2022-08-19T04:08:15;18.35;;;10.40;;
40254;SDS011;25973;52.368;4.940;2022-08-19T04:10:45;19.77;;;10.57;;
40254;SDS011;25973;52.368;4.940;2022-08-19T04:13:11;17.88;;;10.55;;
40254;SDS011;25973;52.368;4.940;2022-08-19T04:15:40;19.90;;;11.13;;
40254;SDS011;25973;52.368;4.940;2022-08-19T04:18:08;20.25;;;10.95;;
40254;SDS011;25973;52.368;4.940;2022-08-19T04:20:44;22.02;;;9.98;;
40254;SDS011;25973;52.368;4.940;2022-08-19T04:23:12;24.23;;;11.77;;
40254;SDS011;25973;52.368;4.940;2022-08-19T04:25:42;22.85;;;11.63;;
40254;SDS011;25973;52.368;4.940;2022-08-19T04:28:12;21.98;;;11.52;;
40254;SDS011;25973;52.368;4.940;2022-08-19T04:30:44;23.08;;;12.23;;
40254;SDS011;25973;52.368;4.940;2022-08-19T04:33:12;21.27;;;11.73;;
40254;SDS011;25973;52.368;4.940;2022-08-19T04:35:42;24.02;;;11.45;;
40254;SDS011;25973;52.368;4.940;2022-08-19T04:38:09;19.45;;;11.82;;
40254;SDS011;25973;52.368;4.940;2022-08-19T04:40:46;23.60;;;12.13;;
40254;SDS011;25973;52.368;4.940;2022-08-19T04:43:33;22.27;;;12.57;;
40254;SDS011;25973;52.368;4.940;2022-08-19T04:46:10;33.15;;;13.07;;
40254;SDS011;25973;52.368;4.940;2022-08-19T04:48:37;29.38;;;13.13;;
40254;SDS011;25973;52.368;4.940;2022-08-19T04:51:08;26.73;;;13.68;;
40254;SDS011;25973;52.368;4.940;2022-08-19T04:53:38;27.52;;;13.55;;
40254;SDS011;25973;52.368;4.940;2022-08-19T04:56:06;27.05;;;13.80;;
40254;SDS011;25973;52.368;4.940;2022-08-19T04:58:34;26.38;;;14.85;;
40254;SDS011;25973;52.368;4.940;2022-08-19T05:01:00;27.23;;;12.77;;
40254;SDS011;25973;52.368;4.940;2022-08-19T05:03:26;31.95;;;13.77;;
40254;SDS011;25973;52.368;4.940;2022-08-19T05:05:54;26.40;;;13.30;;
40254;SDS011;25973;52.368;4.940;2022-08-19T05:08:20;25.50;;;12.77;;
40254;SDS011;25973;52.368;4.940;2022-08-19T05:10:47;26.73;;;13.25;;
40254;SDS011;25973;52.368;4.940;2022-08-19T05:13:15;24.33;;;12.85;;
40254;SDS011;25973;52.368;4.940;2022-08-19T05:15:42;28.45;;;13.60;;
40254;SDS011;25973;52.368;4.940;2022-08-19T05:18:08;28.42;;;15.50;;
40254;SDS011;25973;52.368;4.940;2022-08-19T05:20:53;27.02;;;13.65;;
40254;SDS011;25973;52.368;4.940;2022-08-19T05:23:37;26.33;;;13.60;;
40254;SDS011;25973;52.368;4.940;2022-08-19T05:26:03;28.45;;;15.00;;
40254;SDS011;25973;52.368;4.940;2022-08-19T05:28:29;31.55;;;14.55;;
40254;SDS011;25973;52.368;4.940;2022-08-19T05:30:54;30.23;;;15.02;;
40254;SDS011;25973;52.368;4.940;2022-08-19T05:33:20;28.17;;;13.55;;
40254;SDS011;25973;52.368;4.940;2022-08-19T05:35:46;41.10;;;14.80;;
40254;SDS011;25973;52.368;4.940;2022-08-19T05:38:14;32.53;;;14.63;;
40254;SDS011;25973;52.368;4.940;2022-08-19T05:40:41;28.17;;;14.02;;
40254;SDS011;25973;52.368;4.940;2022-08-19T05:43:10;31.75;;;14.75;;
40254;SDS011;25973;52.368;4.940;2022-08-19T05:45:39;33.40;;;15.35;;
40254;SDS011;25973;52.368;4.940;2022-08-19T05:48:06;36.70;;;14.93;;
40254;SDS011;25973;52.368;4.940;2022-08-19T05:50:32;25.45;;;13.32;;
40254;SDS011;25973;52.368;4.940;2022-08-19T05:53:00;30.52;;;15.55;;
40254;SDS011;25973;52.368;4.940;2022-08-19T05:55:25;31.20;;;14.98;;
40254;SDS011;25973;52.368;4.940;2022-08-19T05:57:51;31.77;;;15.05;;
40254;SDS011;25973;52.368;4.940;2022-08-19T06:00:16;26.55;;;14.65;;
40254;SDS011;25973;52.368;4.940;2022-08-19T06:02:42;28.05;;;14.52;;
40254;SDS011;25973;52.368;4.940;2022-08-19T06:05:07;28.35;;;14.95;;
40254;SDS011;25973;52.368;4.940;2022-08-19T06:07:37;29.55;;;14.05;;
40254;SDS011;25973;52.368;4.940;2022-08-19T06:10:04;24.35;;;13.85;;
40254;SDS011;25973;52.368;4.940;2022-08-19T06:12:32;32.00;;;15.18;;
40254;SDS011;25973;52.368;4.940;2022-08-19T06:15:00;24.65;;;14.07;;
40254;SDS011;25973;52.368;4.940;2022-08-19T06:17:28;28.73;;;14.73;;
40254;SDS011;25973;52.368;4.940;2022-08-19T06:19:54;32.13;;;15.35;;
40254;SDS011;25973;52.368;4.940;2022-08-19T06:22:20;31.33;;;15.70;;
40254;SDS011;25973;52.368;4.940;2022-08-19T06:24:46;36.08;;;16.25;;
40254;SDS011;25973;52.368;4.940;2022-08-19T06:27:12;38.92;;;17.08;;
40254;SDS011;25973;52.368;4.940;2022-08-19T06:29:37;38.20;;;16.92;;
40254;SDS011;25973;52.368;4.940;2022-08-19T06:32:03;34.78;;;15.45;;
40254;SDS011;25973;52.368;4.940;2022-08-19T06:34:30;45.65;;;17.67;;
40254;SDS011;25973;52.368;4.940;2022-08-19T06:36:58;42.35;;;15.63;;
40254;SDS011;25973;52.368;4.940;2022-08-19T06:39:26;41.85;;;16.33;;
40254;SDS011;25973;52.368;4.940;2022-08-19T06:41:55;43.70;;;16.75;;
40254;SDS011;25973;52.368;4.940;2022-08-19T06:44:22;41.67;;;16.88;;
40254;SDS011;25973;52.368;4.940;2022-08-19T06:46:50;39.35;;;17.23;;
40254;SDS011;25973;52.368;4.940;2022-08-19T06:49:19;48.75;;;17.98;;
40254;SDS011;25973;52.368;4.940;2022-08-19T06:51:46;39.28;;;17.73;;
40254;SDS011;25973;52.368;4.940;2022-08-19T06:54:14;43.97;;;17.45;;
40254;SDS011;25973;52.368;4.940;2022-08-19T06:56:40;46.97;;;17.25;;
40254;SDS011;25973;52.368;4.940;2022-08-19T06:59:07;32.92;;;16.40;;
40254;SDS011;25973;52.368;4.940;2022-08-19T07:01:46;43.42;;;16.95;;
40254;SDS011;25973;52.368;4.940;2022-08-19T07:04:15;35.63;;;16.58;;
40254;SDS011;25973;52.368;4.940;2022-08-19T07:06:42;41.28;;;17.08;;
40254;SDS011;25973;52.368;4.940;2022-08-19T07:09:09;51.40;;;17.30;;
40254;SDS011;25973;52.368;4.940;2022-08-19T07:11:36;39.78;;;17.58;;
40254;SDS011;25973;52.368;4.940;2022-08-19T07:14:02;40.05;;;17.08;;
40254;SDS011;25973;52.368;4.940;2022-08-19T07:16:28;34.85;;;15.48;;
40254;SDS011;25973;52.368;4.940;2022-08-19T07:18:54;38.10;;;15.93;;
40254;SDS011;25973;52.368;4.940;2022-08-19T07:21:23;40.53;;;16.15;;
40254;SDS011;25973;52.368;4.940;2022-08-19T07:23:53;35.60;;;16.25;;
40254;SDS011;25973;52.368;4.940;2022-08-19T07:26:20;37.78;;;16.35;;
40254;SDS011;25973;52.368;4.940;2022-08-19T07:28:46;42.40;;;18.08;;
40254;SDS011;25973;52.368;4.940;2022-08-19T07:31:14;36.40;;;16.35;;
40254;SDS011;25973;52.368;4.940;2022-08-19T07:33:43;49.00;;;18.92;;
40254;SDS011;25973;52.368;4.940;2022-08-19T07:36:09;43.95;;;17.00;;
40254;SDS011;25973;52.368;4.940;2022-08-19T07:38:37;37.90;;;15.05;;
40254;SDS011;25973;52.368;4.940;2022-08-19T07:41:05;33.72;;;15.07;;
40254;SDS011;25973;52.368;4.940;2022-08-19T07:43:32;31.00;;;14.20;;
40254;SDS011;25973;52.368;4.940;2022-08-19T07:45:57;32.15;;;14.50;;
40254;SDS011;25973;52.368;4.940;2022-08-19T07:48:23;34.92;;;13.27;;
40254;SDS011;25973;52.368;4.940;2022-08-19T07:50:54;32.30;;;13.67;;
40254;SDS011;25973;52.368;4.940;2022-08-19T07:53:22;31.08;;;13.80;;
40254;SDS011;25973;52.368;4.940;2022-08-19T07:55:49;30.98;;;13.32;;
40254;SDS011;25973;52.368;4.940;2022-08-19T07:58:15;23.67;;;12.95;;
40254;SDS011;25973;52.368;4.940;2022-08-19T08:00:45;28.08;;;11.77;;
40254;SDS011;25973;52.368;4.940;2022-08-19T08:03:13;24.25;;;12.40;;
40254;SDS011;25973;52.368;4.940;2022-08-19T08:05:39;28.52;;;11.50;;
40254;SDS011;25973;52.368;4.940;2022-08-19T08:08:24;25.60;;;12.05;;
40254;SDS011;25973;52.368;4.940;2022-08-19T08:11:04;30.80;;;12.68;;
40254;SDS011;25973;52.368;4.940;2022-08-19T08:13:30;33.05;;;12.90;;
40254;SDS011;25973;52.368;4.940;2022-08-19T08:15:58;20.73;;;9.80;;
40254;SDS011;25973;52.368;4.940;2022-08-19T08:18:24;23.77;;;10.07;;
40254;SDS011;25973;52.368;4.940;2022-08-19T08:20:50;18.13;;;9.77;;
40254;SDS011;25973;52.368;4.940;2022-08-19T08:23:15;21.95;;;10.57;;
40254;SDS011;25973;52.368;4.940;2022-08-19T08:25:47;25.30;;;10.38;;
40254;SDS011;25973;52.368;4.940;2022-08-19T08:28:13;25.52;;;9.73;;
40254;SDS011;25973;52.368;4.940;2022-08-19T08:30:40;22.05;;;9.52;;
40254;SDS011;25973;52.368;4.940;2022-08-19T08:33:07;16.48;;;7.85;;
40254;SDS011;25973;52.368;4.940;2022-08-19T08:35:33;22.30;;;8.07;;
40254;SDS011;25973;52.368;4.940;2022-08-19T08:37:59;16.35;;;6.70;;
40254;SDS011;25973;52.368;4.940;2022-08-19T08:40:29;21.67;;;6.93;;
40254;SDS011;25973;52.368;4.940;2022-08-19T08:43:18;18.35;;;6.40;;
40254;SDS011;25973;52.368;4.940;2022-08-19T08:46:00;12.65;;;6.07;;
40254;SDS011;25973;52.368;4.940;2022-08-19T08:48:47;12.35;;;6.22;;
40254;SDS011;25973;52.368;4.940;2022-08-19T08:51:22;14.10;;;6.78;;
40254;SDS011;25973;52.368;4.940;2022-08-19T08:53:51;16.55;;;6.93;;
40254;SDS011;25973;52.368;4.940;2022-08-19T08:56:21;15.38;;;7.10;;
40254;SDS011;25973;52.368;4.940;2022-08-19T08:58:53;14.65;;;7.03;;
40254;SDS011;25973;52.368;4.940;2022-08-19T09:01:34;12.90;;;6.45;;
40254;SDS011;25973;52.368;4.940;2022-08-19T09:04:04;10.13;;;5.35;;
40254;SDS011;25973;52.368;4.940;2022-08-19T09:06:35;12.63;;;5.80;;
40254;SDS011;25973;52.368;4.940;2022-08-19T09:09:09;16.33;;;4.97;;
40254;SDS011;25973;52.368;4.940;2022-08-19T09:16:59;10.57;;;5.03;;
40254;SDS011;25973;52.368;4.940;2022-08-19T09:19:28;10.48;;;4.20;;
40254;SDS011;25973;52.368;4.940;2022-08-19T09:21:54;9.10;;;3.90;;
40254;SDS011;25973;52.368;4.940;2022-08-19T09:24:19;10.27;;;3.33;;
40254;SDS011;25973;52.368;4.940;2022-08-19T09:26:45;6.22;;;3.53;;
40254;SDS011;25973;52.368;4.940;2022-08-19T09:29:11;6.15;;;3.50;;
40254;SDS011;25973;52.368;4.940;2022-08-19T09:31:36;6.97;;;4.10;;
40254;SDS011;25973;52.368;4.940;2022-08-19T09:34:03;7.65;;;4.00;;
40254;SDS011;25973;52.368;4.940;2022-08-19T09:36:33;10.00;;;4.10;;
40254;SDS011;25973;52.368;4.940;2022-08-19T09:39:00;8.30;;;3.85;;
40254;SDS011;25973;52.368;4.940;2022-08-19T09:41:28;9.13;;;3.60;;
40254;SDS011;25973;52.368;4.940;2022-08-19T09:43:54;11.07;;;3.95;;
40254;SDS011;25973;52.368;4.940;2022-08-19T09:46:21;7.75;;;3.40;;
40254;SDS011;25973;52.368;4.940;2022-08-19T09:48:49;8.75;;;3.70;;
40254;SDS011;25973;52.368;4.940;2022-08-19T09:51:17;8.43;;;3.65;;
40254;SDS011;25973;52.368;4.940;2022-08-19T09:53:45;8.60;;;3.92;;
40254;SDS011;25973;52.368;4.940;2022-08-19T09:56:12;10.60;;;3.78;;
40254;SDS011;25973;52.368;4.940;2022-08-19T09:58:38;8.90;;;3.67;;
40254;SDS011;25973;52.368;4.940;2022-08-19T10:01:06;11.30;;;4.22;;
40254;SDS011;25973;52.368;4.940;2022-08-19T10:03:34;10.35;;;3.95;;
40254;SDS011;25973;52.368;4.940;2022-08-19T10:06:02;6.53;;;3.35;;
40254;SDS011;25973;52.368;4.940;2022-08-19T10:08:31;7.18;;;3.72;;
40254;SDS011;25973;52.368;4.940;2022-08-19T10:11:00;9.05;;;3.03;;
40254;SDS011;25973;52.368;4.940;2022-08-19T10:13:28;7.53;;;3.03;;
40254;SDS011;25973;52.368;4.940;2022-08-19T10:15:55;10.20;;;3.30;;
40254;SDS011;25973;52.368;4.940;2022-08-19T10:18:27;16.30;;;4.68;;
40254;SDS011;25973;52.368;4.940;2022-08-19T10:21:01;12.00;;;3.80;;
40254;SDS011;25973;52.368;4.940;2022-08-19T10:23:33;6.32;;;3.10;;
40254;SDS011;25973;52.368;4.940;2022-08-19T10:26:00;9.40;;;3.50;;
40254;SDS011;25973;52.368;4.940;2022-08-19T10:28:25;12.68;;;4.53;;
40254;SDS011;25973;52.368;4.940;2022-08-19T10:30:51;15.00;;;4.72;;
40254;SDS011;25973;52.368;4.940;2022-08-19T10:33:17;9.60;;;4.30;;
40254;SDS011;25973;52.368;4.940;2022-08-19T10:35:42;8.68;;;3.45;;
40254;SDS011;25973;52.368;4.940;2022-08-19T10:38:11;9.43;;;3.05;;
40254;SDS011;25973;52.368;4.940;2022-08-19T10:40:37;10.93;;;3.42;;
40254;SDS011;25973;52.368;4.940;2022-08-19T10:43:03;11.32;;;3.90;;
40254;SDS011;25973;52.368;4.940;2022-08-19T10:45:28;10.90;;;3.83;;
40254;SDS011;25973;52.368;4.940;2022-08-19T10:47:54;13.05;;;3.58;;
40254;SDS011;25973;52.368;4.940;2022-08-19T10:50:20;11.75;;;3.50;;
40254;SDS011;25973;52.368;4.940;2022-08-19T10:53:05;11.30;;;3.03;;
40254;SDS011;25973;52.368;4.940;2022-08-19T10:55:35;9.38;;;3.75;;
40254;SDS011;25973;52.368;4.940;2022-08-19T10:58:19;14.55;;;3.65;;
40254;SDS011;25973;52.368;4.940;2022-08-19T11:00:53;11.80;;;3.50;;
40254;SDS011;25973;52.368;4.940;2022-08-19T11:03:20;11.73;;;3.20;;
40254;SDS011;25973;52.368;4.940;2022-08-19T11:05:46;5.47;;;2.97;;
40254;SDS011;25973;52.368;4.940;2022-08-19T11:08:21;11.50;;;3.30;;
40254;SDS011;25973;52.368;4.940;2022-08-19T11:10:47;8.07;;;2.95;;
40254;SDS011;25973;52.368;4.940;2022-08-19T11:13:12;8.27;;;2.90;;
40254;SDS011;25973;52.368;4.940;2022-08-19T11:15:38;7.32;;;2.42;;
40254;SDS011;25973;52.368;4.940;2022-08-19T11:18:04;5.00;;;2.25;;
40254;SDS011;25973;52.368;4.940;2022-08-19T11:20:30;4.00;;;2.22;;
40254;SDS011;25973;52.368;4.940;2022-08-19T11:22:56;6.60;;;2.80;;
40254;SDS011;25973;52.368;4.940;2022-08-19T11:25:21;8.50;;;2.35;;
40254;SDS011;25973;52.368;4.940;2022-08-19T11:27:47;4.60;;;2.45;;
40254;SDS011;25973;52.368;4.940;2022-08-19T11:30:16;4.05;;;2.08;;
40254;SDS011;25973;52.368;4.940;2022-08-19T11:32:42;12.73;;;2.75;;
40254;SDS011;25973;52.368;4.940;2022-08-19T11:35:08;4.03;;;2.08;;
40254;SDS011;25973;52.368;4.940;2022-08-19T11:37:33;7.13;;;3.40;;
40254;SDS011;25973;52.368;4.940;2022-08-19T11:40:05;7.07;;;2.25;;
40254;SDS011;25973;52.368;4.940;2022-08-19T11:42:31;5.57;;;2.58;;
40254;SDS011;25973;52.368;4.940;2022-08-19T11:45:15;8.98;;;1.92;;
40254;SDS011;25973;52.368;4.940;2022-08-19T11:47:41;11.35;;;2.60;;
40254;SDS011;25973;52.368;4.940;2022-08-19T11:50:06;7.20;;;1.77;;
40254;SDS011;25973;52.368;4.940;2022-08-19T11:52:32;7.57;;;2.38;;
40254;SDS011;25973;52.368;4.940;2022-08-19T11:54:58;7.03;;;2.05;;
40254;SDS011;25973;52.368;4.940;2022-08-19T11:57:23;6.43;;;2.17;;
40254;SDS011;25973;52.368;4.940;2022-08-19T11:59:50;5.63;;;2.42;;
40254;SDS011;25973;52.368;4.940;2022-08-19T12:02:16;13.90;;;2.28;;
40254;SDS011;25973;52.368;4.940;2022-08-19T12:04:42;8.98;;;2.42;;
40254;SDS011;25973;52.368;4.940;2022-08-19T12:07:08;7.63;;;1.75;;
40254;SDS011;25973;52.368;4.940;2022-08-19T12:09:33;4.40;;;2.00;;
40254;SDS011;25973;52.368;4.940;2022-08-19T12:12:00;6.10;;;2.08;;
40254;SDS011;25973;52.368;4.940;2022-08-19T12:14:27;5.82;;;1.73;;
40254;SDS011;25973;52.368;4.940;2022-08-19T12:16:54;6.30;;;1.10;;
40254;SDS011;25973;52.368;4.940;2022-08-19T12:19:22;5.43;;;2.30;;
40254;SDS011;25973;52.368;4.940;2022-08-19T12:21:49;8.95;;;4.07;;
40254;SDS011;25973;52.368;4.940;2022-08-19T12:24:16;6.00;;;2.00;;
40254;SDS011;25973;52.368;4.940;2022-08-19T12:26:47;8.85;;;2.70;;
40254;SDS011;25973;52.368;4.940;2022-08-19T12:29:13;3.05;;;1.00;;
40254;SDS011;25973;52.368;4.940;2022-08-19T12:31:42;5.22;;;1.35;;
40254;SDS011;25973;52.368;4.940;2022-08-19T12:34:08;4.75;;;1.35;;
40254;SDS011;25973;52.368;4.940;2022-08-19T12:36:34;6.00;;;1.05;;
40254;SDS011;25973;52.368;4.940;2022-08-19T12:38:59;3.40;;;1.20;;
40254;SDS011;25973;52.368;4.940;2022-08-19T12:41:25;4.07;;;1.38;;
40254;SDS011;25973;52.368;4.940;2022-08-19T12:43:51;3.45;;;1.48;;
40254;SDS011;25973;52.368;4.940;2022-08-19T12:46:17;2.35;;;1.25;;
40254;SDS011;25973;52.368;4.940;2022-08-19T12:48:44;1.98;;;0.75;;
40254;SDS011;25973;52.368;4.940;2022-08-19T12:51:15;6.72;;;1.83;;
40254;SDS011;25973;52.368;4.940;2022-08-19T12:53:44;4.22;;;1.10;;
40254;SDS011;25973;52.368;4.940;2022-08-19T12:56:10;2.35;;;0.90;;
40254;SDS011;25973;52.368;4.940;2022-08-19T12:58:37;3.08;;;1.38;;
40254;SDS011;25973;52.368;4.940;2022-08-19T13:01:13;2.00;;;1.27;;
40254;SDS011;25973;52.368;4.940;2022-08-19T13:03:40;2.90;;;0.98;;
40254;SDS011;25973;52.368;4.940;2022-08-19T13:06:07;1.33;;;0.75;;
40254;SDS011;25973;52.368;4.940;2022-08-19T13:08:33;3.00;;;0.63;;
40254;SDS011;25973;52.368;4.940;2022-08-19T13:11:06;0.93;;;0.50;;
40254;SDS011;25973;52.368;4.940;2022-08-19T13:13:33;3.30;;;0.47;;
40254;SDS011;25973;52.368;4.940;2022-08-19T13:16:00;1.67;;;0.90;;
40254;SDS011;25973;52.368;4.940;2022-08-19T13:18:29;1.27;;;0.68;;
40254;SDS011;25973;52.368;4.940;2022-08-19T13:20:56;2.88;;;0.85;;
40254;SDS011;25973;52.368;4.940;2022-08-19T13:23:22;2.28;;;1.30;;
40254;SDS011;25973;52.368;4.940;2022-08-19T13:26:00;3.70;;;1.30;;
40254;SDS011;25973;52.368;4.940;2022-08-19T13:28:28;5.18;;;2.10;;
40254;SDS011;25973;52.368;4.940;2022-08-19T13:31:18;10.63;;;3.50;;
40254;SDS011;25973;52.368;4.940;2022-08-19T13:34:03;3.70;;;0.90;;
40254;SDS011;25973;52.368;4.940;2022-08-19T13:36:31;4.47;;;1.20;;
40254;SDS011;25973;52.368;4.940;2022-08-19T13:39:00;1.70;;;0.70;;
40254;SDS011;25973;52.368;4.940;2022-08-19T13:41:26;4.32;;;0.70;;
40254;SDS011;25973;52.368;4.940;2022-08-19T13:43:52;2.00;;;0.98;;
40254;SDS011;25973;52.368;4.940;2022-08-19T13:46:17;4.97;;;0.90;;
40254;SDS011;25973;52.368;4.940;2022-08-19T13:48:44;4.22;;;0.73;;
40254;SDS011;25973;52.368;4.940;2022-08-19T13:51:10;1.90;;;0.77;;
40254;SDS011;25973;52.368;4.940;2022-08-19T13:53:37;2.70;;;0.82;;
40254;SDS011;25973;52.368;4.940;2022-08-19T13:56:08;1.92;;;0.90;;
40254;SDS011;25973;52.368;4.940;2022-08-19T13:58:39;3.90;;;0.60;;
40254;SDS011;25973;52.368;4.940;2022-08-19T14:01:05;2.25;;;0.70;;
40254;SDS011;25973;52.368;4.940;2022-08-19T14:03:32;1.83;;;0.60;;
40254;SDS011;25973;52.368;4.940;2022-08-19T14:05:59;1.55;;;0.75;;
40254;SDS011;25973;52.368;4.940;2022-08-19T14:08:26;3.45;;;1.13;;
40254;SDS011;25973;52.368;4.940;2022-08-19T14:10:53;1.98;;;0.60;;
40254;SDS011;25973;52.368;4.940;2022-08-19T14:13:19;1.88;;;0.85;;
40254;SDS011;25973;52.368;4.940;2022-08-19T14:15:46;4.10;;;1.55;;
40254;SDS011;25973;52.368;4.940;2022-08-19T14:18:12;3.80;;;0.95;;
40254;SDS011;25973;52.368;4.940;2022-08-19T14:20:38;3.63;;;0.65;;
40254;SDS011;25973;52.368;4.940;2022-08-19T14:23:04;1.05;;;0.73;;
40254;SDS011;25973;52.368;4.940;2022-08-19T14:25:31;3.05;;;0.80;;
40254;SDS011;25973;52.368;4.940;2022-08-19T14:27:58;2.47;;;0.80;;
40254;SDS011;25973;52.368;4.940;2022-08-19T14:30:29;1.83;;;0.85;;
40254;SDS011;25973;52.368;4.940;2022-08-19T14:32:58;2.58;;;0.75;;
40254;SDS011;25973;52.368;4.940;2022-08-19T14:35:25;3.50;;;0.57;;
40254;SDS011;25973;52.368;4.940;2022-08-19T14:37:55;1.98;;;1.00;;
40254;SDS011;25973;52.368;4.940;2022-08-19T14:40:23;3.10;;;0.80;;
40254;SDS011;25973;52.368;4.940;2022-08-19T14:42:51;2.33;;;1.00;;
40254;SDS011;25973;52.368;4.940;2022-08-19T14:45:21;2.22;;;0.70;;
40254;SDS011;25973;52.368;4.940;2022-08-19T14:47:46;4.18;;;0.98;;
40254;SDS011;25973;52.368;4.940;2022-08-19T14:50:12;2.50;;;0.75;;